Time;durP1;ratioP1;P1;durP2;ratioP2;P2;SDS_P1;SDS_P2;PMS_P1;PMS_P2;Temp;Humidity;BMP_temperature;BMP_pressure;BME280_temperature;BME280_humidity;BME280_pressure;Samples;Min_cycle;Max_cycle;Signal;HPM_P1;HPM_P2
2023/01/20 00:00:04;;;;;;;27.58;10.88;;;3.10;93.40;;;;;;5078833;28;20051;-74
2023/01/20 00:02:29;;;;;;;29.15;10.38;;;3.10;93.30;;;;;;5078755;28;20059;-74
2023/01/20 00:04:55;;;;;;;31.20;11.02;;;3.10;93.30;;;;;;5078804;28;20105;-74
2023/01/20 00:07:20;;;;;;;29.95;11.60;;;3.10;93.30;;;;;;5078759;28;20025;-74
2023/01/20 00:09:46;;;;;;;33.45;10.70;;;3.10;93.30;;;;;;5078610;28;20032;-74
2023/01/20 00:12:12;;;;;;;30.00;10.98;;;3.10;93.20;;;;;;5061859;28;20096;-73
2023/01/20 00:14:37;;;;;;;28.70;10.35;;;3.10;93.20;;;;;;5078445;28;20058;-73
2023/01/20 00:17:03;;;;;;;28.48;10.25;;;3.20;93.20;;;;;;5078566;28;20066;-74
2023/01/20 00:19:28;;;;;;;24.75;10.05;;;3.20;93.10;;;;;;5045284;28;20052;-74
2023/01/20 00:21:54;;;;;;;31.63;11.10;;;3.20;93.10;;;;;;5078467;28;20025;-74
2023/01/20 00:24:20;;;;;;;30.00;10.55;;;3.20;93.10;;;;;;5061701;28;20033;-74
2023/01/20 00:26:45;;;;;;;29.50;10.43;;;3.30;93.10;;;;;;5044964;28;20055;-74
2023/01/20 00:29:11;;;;;;;29.52;9.93;;;3.20;93.10;;;;;;5078222;28;20033;-74
2023/01/20 00:31:37;;;;;;;27.50;10.60;;;3.20;93.10;;;;;;5061486;28;20134;-74
2023/01/20 00:34:04;;;;;;;31.20;11.43;;;3.30;93.10;;;;;;5078076;28;20020;-74
2023/01/20 00:36:31;;;;;;;30.88;11.18;;;3.30;93.00;;;;;;5095856;28;20017;-74
2023/01/20 00:38:57;;;;;;;33.25;11.30;;;3.30;93.10;;;;;;5078034;28;20021;-74
2023/01/20 00:41:26;;;;;;;31.67;11.65;;;3.30;93.10;;;;;;5095753;28;20056;-74
2023/01/20 00:43:51;;;;;;;21.92;8.98;;;3.20;93.00;;;;;;5044771;28;20100;-74
2023/01/20 00:46:17;;;;;;;28.48;10.10;;;3.20;93.00;;;;;;5061283;28;20020;-74
2023/01/20 00:48:43;;;;;;;26.55;10.73;;;3.10;93.00;;;;;;5077997;28;20033;-74
2023/01/20 00:51:09;;;;;;;30.00;10.27;;;3.10;92.90;;;;;;5061105;28;20025;-74
2023/01/20 00:53:35;;;;;;;27.00;9.73;;;3.10;93.00;;;;;;5061081;28;20048;-74
2023/01/20 00:56:01;;;;;;;25.67;9.60;;;3.00;93.20;;;;;;5095487;28;20024;-74
2023/01/20 00:58:27;;;;;;;25.48;11.13;;;3.00;93.40;;;;;;5077620;28;20093;-74
2023/01/20 01:00:54;;;;;;;28.50;10.18;;;2.90;93.50;;;;;;5095403;28;20016;-74
2023/01/20 01:03:20;;;;;;;27.42;9.77;;;2.90;93.60;;;;;;5061285;28;20059;-74
2023/01/20 01:05:46;;;;;;;27.85;11.13;;;2.90;93.50;;;;;;5060866;28;20040;-73
2023/01/20 01:08:12;;;;;;;25.60;9.15;;;3.00;93.60;;;;;;5095196;28;20025;-74
2023/01/20 01:10:37;;;;;;;29.13;10.02;;;3.00;93.50;;;;;;5060892;28;20558;-74
2023/01/20 01:13:04;;;;;;;28.88;10.45;;;3.00;93.50;;;;;;5077511;28;20032;-74
2023/01/20 01:15:29;;;;;;;26.38;9.93;;;3.00;93.50;;;;;;5060818;28;20060;-74
2023/01/20 01:17:56;;;;;;;21.85;9.50;;;3.00;93.50;;;;;;5060757;28;20049;-73
2023/01/20 01:20:23;;;;;;;23.27;9.25;;;3.00;93.50;;;;;;5095027;28;20021;-74
2023/01/20 01:22:48;;;;;;;24.77;9.30;;;2.90;93.70;;;;;;5077185;28;20027;-73
2023/01/20 01:25:14;;;;;;;19.27;7.68;;;2.90;93.80;;;;;;5060366;28;20112;-74
2023/01/20 01:27:40;;;;;;;19.92;8.38;;;2.80;93.90;;;;;;5043908;28;20032;-73
2023/01/20 01:30:06;;;;;;;20.45;7.70;;;2.80;93.90;;;;;;5077234;28;20035;-73
2023/01/20 01:32:32;;;;;;;19.65;8.27;;;2.80;94.10;;;;;;5060432;28;20033;-74
2023/01/20 01:34:57;;;;;;;21.75;7.43;;;2.80;94.10;;;;;;5060348;28;20029;-74
2023/01/20 01:37:23;;;;;;;17.75;7.10;;;2.80;94.10;;;;;;5077047;28;20028;-74
2023/01/20 01:39:48;;;;;;;18.50;7.22;;;2.80;94.00;;;;;;5060256;28;20074;-74
2023/01/20 01:42:17;;;;;;;22.10;7.38;;;2.70;94.10;;;;;;5094556;28;20025;-73
2023/01/20 01:45:14;;;;;;;18.02;7.32;;;2.80;94.00;;;;;;5094496;28;20020;-74
2023/01/20 01:48:00;;;;;;;22.45;7.72;;;2.70;94.10;;;;;;5094496;28;20024;-73
2023/01/20 01:50:35;;;;;;;19.33;7.45;;;2.80;94.20;;;;;;5094361;28;20024;-74
2023/01/20 01:53:01;;;;;;;22.38;7.40;;;2.60;94.30;;;;;;5076611;28;20050;-74
2023/01/20 01:55:30;;;;;;;17.42;6.60;;;2.60;94.50;;;;;;5094248;28;20359;-73
2023/01/20 01:57:57;;;;;;;16.48;6.75;;;2.60;94.40;;;;;;5094274;28;20166;-74
2023/01/20 02:00:24;;;;;;;21.60;7.55;;;2.60;94.50;;;;;;5076454;28;20029;-73
2023/01/20 02:02:50;;;;;;;20.45;8.73;;;2.60;94.50;;;;;;5059911;28;20092;-74
2023/01/20 02:05:16;;;;;;;24.75;7.85;;;2.60;94.40;;;;;;5076467;28;20025;-74
2023/01/20 02:07:45;;;;;;;26.55;8.77;;;2.60;94.50;;;;;;5093982;28;20017;-74
2023/01/20 02:10:12;;;;;;;14.38;6.60;;;2.50;94.60;;;;;;5093444;28;20063;-74
2023/01/20 02:12:38;;;;;;;30.20;9.13;;;2.60;94.50;;;;;;5093897;28;20048;-73
2023/01/20 02:15:05;;;;;;;28.48;9.27;;;2.60;94.50;;;;;;5059604;28;20025;-74
2023/01/20 02:17:32;;;;;;;23.85;8.95;;;2.70;94.50;;;;;;5059682;28;20080;-74
2023/01/20 02:20:30;;;;;;;25.50;9.50;;;2.60;94.50;;;;;;5076190;28;20063;-74
2023/01/20 02:23:07;;;;;;;29.25;9.55;;;2.60;94.50;;;;;;5093796;28;20039;-74
2023/01/20 02:25:42;;;;;;;23.30;9.10;;;2.60;94.70;;;;;;5093533;28;20048;-74
2023/01/20 02:28:26;;;;;;;26.83;9.57;;;2.50;94.70;;;;;;5093757;28;20033;-74
2023/01/20 02:31:07;;;;;;;29.35;8.65;;;2.60;94.80;;;;;;5075963;28;20027;-74
2023/01/20 02:33:43;;;;;;;34.40;11.40;;;2.50;95.10;;;;;;5076070;28;20067;-74
2023/01/20 02:36:51;;;;;;;28.10;11.30;;;2.50;94.70;;;;;;5093636;28;20489;-74
2023/01/20 02:39:24;;;;;;;29.13;9.38;;;2.50;94.80;;;;;;5088477;28;20033;-74
2023/01/20 02:41:57;;;;;;;24.23;8.32;;;2.50;94.70;;;;;;5093712;28;20458;-73
2023/01/20 02:44:41;;;;;;;29.00;10.30;;;2.50;94.60;;;;;;5075737;28;20046;-74
2023/01/20 02:47:42;;;;;;;26.80;10.70;;;2.50;94.60;;;;;;5093500;28;20028;-74
2023/01/20 02:50:10;;;;;;;29.40;9.65;;;2.50;94.60;;;;;;5050382;28;20024;-74
2023/01/20 02:52:42;;;;;;;27.38;9.07;;;2.50;94.70;;;;;;5075564;28;20078;-74
2023/01/20 02:55:12;;;;;;;28.27;10.43;;;2.50;94.70;;;;;;5093459;28;20016;-74
2023/01/20 02:57:44;;;;;;;28.02;9.13;;;2.50;94.70;;;;;;5093392;28;20040;-73
2023/01/20 03:00:25;;;;;;;26.67;9.85;;;2.50;94.70;;;;;;5093325;28;20017;-74
2023/01/20 03:02:54;;;;;;;25.55;9.75;;;2.60;94.70;;;;;;5075733;28;20058;-73
2023/01/20 03:05:24;;;;;;;31.17;9.85;;;2.60;94.60;;;;;;5093236;28;20032;-74
2023/01/20 03:07:52;;;;;;;15.65;6.40;;;2.60;94.50;;;;;;5075470;28;20101;-74
2023/01/20 03:10:23;;;;;;;21.85;8.18;;;2.50;94.50;;;;;;5075489;28;20055;-74
2023/01/20 03:13:12;;;;;;;26.65;10.05;;;2.50;94.60;;;;;;5075386;28;20016;-74
2023/01/20 03:15:54;;;;;;;29.63;10.52;;;2.50;94.60;;;;;;5093207;28;20029;-73
2023/01/20 03:18:21;;;;;;;31.52;8.93;;;2.50;94.70;;;;;;5075444;28;20050;-74
2023/01/20 03:20:46;;;;;;;29.38;9.50;;;2.50;94.70;;;;;;5075347;28;20025;-74
2023/01/20 03:23:12;;;;;;;27.80;10.85;;;2.50;95.20;;;;;;5045766;28;20036;-74
2023/01/20 03:25:39;;;;;;;30.50;10.30;;;2.50;94.90;;;;;;5062645;28;20048;-74
2023/01/20 03:28:04;;;;;;;22.50;9.60;;;2.50;94.90;;;;;;5079443;28;20028;-73
2023/01/20 03:30:30;;;;;;;25.08;9.45;;;2.50;94.70;;;;;;5062875;28;20096;-74
2023/01/20 03:32:56;;;;;;;33.10;10.15;;;2.50;94.70;;;;;;5079391;28;20029;-74
2023/01/20 03:35:22;;;;;;;28.50;9.25;;;2.50;94.80;;;;;;5062609;28;20024;-73
2023/01/20 03:37:48;;;;;;;24.67;8.38;;;2.40;95.00;;;;;;5096953;28;20016;-74
2023/01/20 03:40:14;;;;;;;23.30;8.80;;;2.40;95.00;;;;;;5079329;28;20032;-74
2023/01/20 03:43:05;;;;;;;29.33;9.00;;;2.40;95.00;;;;;;5062477;28;20055;-74
2023/01/20 03:45:45;;;;;;;26.08;9.73;;;2.40;95.00;;;;;;5096820;28;20051;-74
2023/01/20 03:48:33;;;;;;;32.05;9.95;;;2.40;95.10;;;;;;5078966;28;20089;-74
2023/01/20 03:51:12;;;;;;;20.27;7.13;;;2.40;95.00;;;;;;5078915;28;20054;-74
2023/01/20 03:53:51;;;;;;;22.30;7.53;;;2.40;94.90;;;;;;5078889;28;20092;-73
2023/01/20 03:56:23;;;;;;;26.42;9.10;;;2.40;94.70;;;;;;5078938;28;20044;-74
2023/01/20 03:58:50;;;;;;;;;;;2.40;94.80;;;;;;5079284;28;20024;-74
2023/01/20 04:01:19;;;;;;;19.77;7.85;;;2.30;95.00;;;;;;5078883;28;19908;-74
2023/01/20 04:03:49;;;;;;;21.63;7.07;;;2.30;95.00;;;;;;5078765;28;20099;-74
2023/01/20 04:06:16;;;;;;;20.48;7.45;;;2.30;95.10;;;;;;5096382;28;20029;-74
2023/01/20 04:08:52;;;;;;;22.17;6.90;;;2.30;95.00;;;;;;5096278;28;20035;-73
2023/01/20 04:11:19;;;;;;;29.23;8.60;;;2.30;94.80;;;;;;5078642;28;20054;-74
2023/01/20 04:13:44;;;;;;;23.98;7.57;;;2.30;94.80;;;;;;5062030;28;20033;-73
2023/01/20 04:16:14;;;;;;;26.17;9.18;;;2.40;94.90;;;;;;5078503;28;20088;-74
2023/01/20 04:18:42;;;;;;;32.58;9.02;;;2.40;94.80;;;;;;5078574;28;20013;-74
2023/01/20 04:21:13;;;;;;;24.85;9.30;;;2.40;94.70;;;;;;5096129;28;20025;-74
2023/01/20 04:23:42;;;;;;;22.42;8.50;;;2.50;94.70;;;;;;5078398;28;20017;-73
2023/01/20 04:26:08;;;;;;;22.38;7.97;;;2.50;94.50;;;;;;5068424;28;20057;-74
2023/01/20 04:28:34;;;;;;;27.17;8.70;;;2.50;94.40;;;;;;5038405;28;20033;-73
2023/01/20 04:30:59;;;;;;;21.10;8.48;;;2.50;94.40;;;;;;5038372;28;20037;-74
2023/01/20 04:33:25;;;;;;;26.42;9.20;;;2.50;94.40;;;;;;5054180;28;20036;-74
2023/01/20 04:35:51;;;;;;;24.15;7.95;;;2.50;94.40;;;;;;5054781;28;20048;-73
2023/01/20 04:38:16;;;;;;;23.70;7.18;;;2.50;94.30;;;;;;5054838;28;20030;-74
2023/01/20 04:40:42;;;;;;;18.48;6.65;;;2.40;94.40;;;;;;5038201;28;20037;-73
2023/01/20 04:43:08;;;;;;;23.42;7.88;;;2.50;94.50;;;;;;5038133;28;20032;-74
2023/01/20 04:45:34;;;;;;;26.52;8.65;;;2.50;94.40;;;;;;5054728;28;20076;-73
2023/01/20 04:48:03;;;;;;;24.25;8.32;;;2.50;94.50;;;;;;5055582;28;20034;-73
2023/01/20 04:50:29;;;;;;;19.63;8.38;;;2.50;94.50;;;;;;5054498;28;20022;-73
2023/01/20 04:52:55;;;;;;;21.23;7.03;;;2.40;94.40;;;;;;5037883;28;20057;-74
2023/01/20 04:55:20;;;;;;;16.77;6.97;;;2.40;94.60;;;;;;5054481;28;20026;-74
2023/01/20 04:57:46;;;;;;;18.70;7.10;;;2.40;94.70;;;;;;5054397;28;20043;-73
2023/01/20 05:00:18;;;;;;;30.75;8.85;;;2.30;94.70;;;;;;5054382;28;20022;-73
2023/01/20 05:02:44;;;;;;;21.33;7.55;;;2.30;94.80;;;;;;5054608;28;20017;-74
2023/01/20 05:05:10;;;;;;;21.73;7.60;;;2.40;94.80;;;;;;5054224;28;20029;-74
2023/01/20 05:07:36;;;;;;;22.40;7.45;;;2.40;94.70;;;;;;5054146;28;20032;-74
2023/01/20 05:10:01;;;;;;;18.70;7.78;;;2.40;94.70;;;;;;5037691;28;20475;-74
2023/01/20 05:12:27;;;;;;;19.00;6.15;;;2.40;94.60;;;;;;5054205;28;20034;-74
2023/01/20 05:14:53;;;;;;;29.52;8.13;;;2.40;94.90;;;;;;5055019;28;20045;-74
2023/01/20 05:17:18;;;;;;;21.90;8.18;;;2.30;94.40;;;;;;5037493;28;20029;-74
2023/01/20 05:19:44;;;;;;;18.23;7.20;;;2.30;94.50;;;;;;5053963;28;20037;-74
2023/01/20 05:22:09;;;;;;;19.30;6.07;;;2.30;94.70;;;;;;5054075;28;20024;-73
2023/01/20 05:24:35;;;;;;;22.02;8.20;;;2.20;94.70;;;;;;5053968;28;20033;-73
2023/01/20 05:27:01;;;;;;;23.20;9.20;;;2.20;94.80;;;;;;5053622;28;20069;-73
2023/01/20 05:29:27;;;;;;;23.15;8.95;;;2.20;95.00;;;;;;5053863;28;20056;-73
2023/01/20 05:31:53;;;;;;;22.95;7.10;;;2.30;95.00;;;;;;5054781;28;20028;-74
2023/01/20 05:34:19;;;;;;;23.05;8.05;;;2.30;95.00;;;;;;5053617;28;20034;-74
2023/01/20 05:36:44;;;;;;;24.05;8.70;;;2.30;95.00;;;;;;5037123;28;20026;-74
2023/01/20 05:39:10;;;;;;;19.83;7.90;;;2.30;94.90;;;;;;5037159;28;20056;-74
2023/01/20 05:41:35;;;;;;;25.42;8.60;;;2.30;95.00;;;;;;5037056;28;20049;-73
2023/01/20 05:44:01;;;;;;;22.23;7.50;;;2.30;95.00;;;;;;5052845;28;20085;-74
2023/01/20 05:46:26;;;;;;;10.05;4.15;;;2.30;95.00;;;;;;5053407;28;20038;-73
2023/01/20 05:48:52;;;;;;;32.08;10.18;;;2.20;94.90;;;;;;5054419;28;20025;-73
2023/01/20 05:51:18;;;;;;;27.08;9.40;;;2.20;95.00;;;;;;5036871;28;20475;-75
2023/01/20 05:53:43;;;;;;;21.88;8.25;;;2.20;95.10;;;;;;5053400;28;20028;-76
2023/01/20 05:56:11;;;;;;;23.27;8.48;;;2.20;95.00;;;;;;5036761;28;20558;-76
2023/01/20 05:58:37;;;;;;;24.10;9.15;;;2.10;95.10;;;;;;5053285;28;20513;-76
2023/01/20 06:01:09;;;;;;;22.73;7.78;;;2.10;95.10;;;;;;5053261;28;20045;-76
2023/01/20 06:03:35;;;;;;;;;;;2.10;95.10;;;;;;5054537;28;20032;-76
2023/01/20 06:06:02;;;;;;;19.60;7.07;;;2.00;95.00;;;;;;5054109;28;19909;-76
2023/01/20 06:08:27;;;;;;;24.80;9.25;;;2.00;95.20;;;;;;5052964;28;20049;-76
2023/01/20 06:10:53;;;;;;;18.63;6.30;;;2.00;95.20;;;;;;5036503;28;20036;-74
2023/01/20 06:13:19;;;;;;;15.52;6.22;;;1.90;95.10;;;;;;5036346;28;20040;-74
2023/01/20 06:15:53;;;;;;;23.20;8.18;;;1.90;95.30;;;;;;5036414;28;20029;-73
2023/01/20 06:18:23;;;;;;;22.23;7.30;;;2.00;95.40;;;;;;5052933;28;20077;-74
2023/01/20 06:20:49;;;;;;;19.17;6.82;;;2.00;95.50;;;;;;5053849;28;20018;-74
2023/01/20 06:23:14;;;;;;;28.33;9.15;;;2.00;95.50;;;;;;5052737;28;20048;-74
2023/01/20 06:25:41;;;;;;;15.30;6.68;;;2.00;95.60;;;;;;5057599;28;20036;-74
2023/01/20 06:28:07;;;;;;;23.17;9.07;;;2.00;95.60;;;;;;5093753;28;20039;-74
2023/01/20 06:30:32;;;;;;;28.45;9.77;;;2.00;95.50;;;;;;5093379;28;20021;-74
2023/01/20 06:32:59;;;;;;;25.58;9.80;;;2.00;95.50;;;;;;5059199;28;20170;-74
2023/01/20 06:35:25;;;;;;;19.73;6.90;;;1.90;95.40;;;;;;5043127;28;20096;-74
2023/01/20 06:37:51;;;;;;;23.95;9.00;;;1.90;95.40;;;;;;5075927;28;20020;-74
2023/01/20 06:40:17;;;;;;;17.58;7.15;;;1.90;95.60;;;;;;5059318;28;20035;-74
2023/01/20 06:42:43;;;;;;;23.70;7.72;;;1.90;95.70;;;;;;5093662;28;20013;-75
2023/01/20 06:45:09;;;;;;;16.35;6.72;;;1.90;95.70;;;;;;5059063;28;20119;-75
2023/01/20 06:47:35;;;;;;;24.67;6.85;;;1.90;95.80;;;;;;5075904;28;20048;-75
2023/01/20 06:50:00;;;;;;;22.60;7.82;;;1.90;95.80;;;;;;5075831;28;20017;-75
2023/01/20 06:52:26;;;;;;;14.32;6.30;;;1.90;95.90;;;;;;5075798;28;20032;-75
2023/01/20 06:54:51;;;;;;;23.67;8.65;;;1.90;95.80;;;;;;5075706;28;20055;-75
2023/01/20 06:57:18;;;;;;;27.50;8.77;;;1.90;95.90;;;;;;5075359;28;20025;-75
2023/01/20 06:59:44;;;;;;;30.00;10.43;;;1.90;95.90;;;;;;5075838;28;20016;-75
2023/01/20 07:02:12;;;;;;;25.65;9.23;;;1.90;95.90;;;;;;5075636;28;20029;-75
2023/01/20 07:04:38;;;;;;;27.00;9.15;;;2.00;95.90;;;;;;5075622;28;20038;-74
2023/01/20 07:07:03;;;;;;;23.13;9.27;;;1.90;95.90;;;;;;5075632;28;20024;-75
2023/01/20 07:09:29;;;;;;;26.23;8.13;;;1.90;95.90;;;;;;5075549;28;20032;-75
2023/01/20 07:11:55;;;;;;;12.95;5.07;;;1.90;96.00;;;;;;5075519;28;20033;-76
2023/01/20 07:14:21;;;;;;;19.85;7.20;;;1.90;96.00;;;;;;5058852;28;20033;-76
2023/01/20 07:16:46;;;;;;;29.52;11.05;;;1.90;96.00;;;;;;5075420;28;20055;-75
2023/01/20 07:19:12;;;;;;;28.35;10.07;;;2.00;95.90;;;;;;5075497;28;20021;-75
2023/01/20 07:21:38;;;;;;;29.05;10.27;;;2.00;95.90;;;;;;5058930;28;20021;-75
2023/01/20 07:24:04;;;;;;;25.15;9.20;;;2.00;95.80;;;;;;5058757;28;20050;-75
2023/01/20 07:26:30;;;;;;;27.23;10.13;;;2.00;95.80;;;;;;5075176;28;20052;-75
2023/01/20 07:28:59;;;;;;;34.63;10.35;;;2.00;95.70;;;;;;5075442;28;20040;-75
2023/01/20 07:31:27;;;;;;;27.92;9.40;;;2.10;95.70;;;;;;5058687;28;20033;-75
2023/01/20 07:33:56;;;;;;;25.40;8.82;;;2.10;95.70;;;;;;5092954;28;20021;-74
2023/01/20 07:36:21;;;;;;;30.55;9.73;;;2.10;95.50;;;;;;5075216;28;20060;-75
2023/01/20 07:38:48;;;;;;;21.52;7.93;;;2.10;95.90;;;;;;5075370;28;20025;-76
2023/01/20 07:41:18;;;;;;;26.60;8.70;;;2.00;95.60;;;;;;5075362;28;20046;-75
2023/01/20 07:43:45;;;;;;;30.10;9.60;;;2.10;95.60;;;;;;5093138;28;20023;-75
2023/01/20 07:46:12;;;;;;;26.95;9.80;;;2.10;95.50;;;;;;5058656;28;20096;-75
2023/01/20 07:48:37;;;;;;;21.13;8.90;;;2.10;95.40;;;;;;5075095;28;20048;-74
2023/01/20 07:51:05;;;;;;;22.40;8.82;;;2.10;95.40;;;;;;5075052;28;20100;-75
2023/01/20 07:53:39;;;;;;;34.45;11.30;;;2.10;95.50;;;;;;5074979;28;20043;-74
2023/01/20 07:56:12;;;;;;;24.40;8.80;;;2.20;95.40;;;;;;5092836;28;20025;-75
2023/01/20 07:58:38;;;;;;;30.02;9.93;;;2.30;95.30;;;;;;5075012;28;20053;-75
2023/01/20 08:01:09;;;;;;;36.45;11.60;;;2.30;95.20;;;;;;5075010;28;20021;-75
2023/01/20 08:03:35;;;;;;;32.50;10.27;;;2.30;95.20;;;;;;5074961;28;20024;-75
2023/01/20 08:06:06;;;;;;;31.13;10.30;;;2.30;95.10;;;;;;5074933;28;20032;-74
2023/01/20 08:08:32;;;;;;;29.92;10.55;;;2.40;95.10;;;;;;5077642;28;20044;-74
2023/01/20 08:11:00;;;;;;;29.80;9.15;;;2.40;95.10;;;;;;5096289;28;20386;-75
2023/01/20 08:13:26;;;;;;;40.00;12.68;;;2.40;95.00;;;;;;5062285;28;20079;-74
2023/01/20 08:15:52;;;;;;;27.60;8.57;;;2.40;95.00;;;;;;5045558;28;20054;-75
2023/01/20 08:18:17;;;;;;;29.75;9.73;;;2.40;95.00;;;;;;5078624;28;20088;-75
2023/01/20 08:20:43;;;;;;;29.13;10.43;;;2.40;95.10;;;;;;5078581;28;20108;-76
2023/01/20 08:23:09;;;;;;;22.52;9.23;;;2.40;95.00;;;;;;5096162;28;20024;-76
2023/01/20 08:25:34;;;;;;;26.80;9.73;;;2.50;94.60;;;;;;5061522;28;20039;-76
2023/01/20 08:28:00;;;;;;;25.42;9.02;;;2.50;94.60;;;;;;5061881;28;20032;-76
2023/01/20 08:30:26;;;;;;;21.67;9.13;;;2.50;94.70;;;;;;5045131;28;20548;-75
2023/01/20 08:32:51;;;;;;;30.50;9.93;;;2.50;94.70;;;;;;5078300;28;20084;-75
2023/01/20 08:35:17;;;;;;;30.55;10.68;;;2.50;94.70;;;;;;5061378;28;20081;-76
2023/01/20 08:37:43;;;;;;;28.80;9.23;;;2.60;94.70;;;;;;5095862;28;20032;-75
2023/01/20 08:40:10;;;;;;;21.95;7.15;;;2.50;94.50;;;;;;5078100;28;20039;-75
2023/01/20 08:42:37;;;;;;;28.40;9.75;;;2.50;94.60;;;;;;5077947;28;20013;-76
2023/01/20 08:45:05;;;;;;;26.98;7.85;;;2.50;94.90;;;;;;5095766;28;20092;-74
2023/01/20 08:47:33;;;;;;;22.85;9.45;;;2.50;94.90;;;;;;5095611;28;20028;-74
2023/01/20 08:49:59;;;;;;;17.90;7.28;;;2.40;95.00;;;;;;5095659;28;20032;-74
2023/01/20 08:52:25;;;;;;;26.13;9.00;;;2.40;95.20;;;;;;5077898;28;20028;-75
2023/01/20 08:54:51;;;;;;;27.67;11.02;;;2.30;95.40;;;;;;5077928;28;20035;-75
2023/01/20 08:57:17;;;;;;;27.60;9.18;;;2.30;95.60;;;;;;5061425;28;20028;-74
2023/01/20 08:59:45;;;;;;;19.73;8.55;;;2.30;95.70;;;;;;5095420;28;20055;-74
2023/01/20 09:02:11;;;;;;;35.40;11.25;;;2.30;95.90;;;;;;5077589;28;20021;-74
2023/01/20 09:04:37;;;;;;;28.52;9.73;;;2.30;96.00;;;;;;5077585;28;20061;-75
2023/01/20 09:07:03;;;;;;;25.25;10.43;;;2.20;96.10;;;;;;5077627;28;20047;-74
2023/01/20 09:09:29;;;;;;;20.88;8.43;;;2.30;96.10;;;;;;5095222;28;20020;-74
2023/01/20 09:11:55;;;;;;;20.90;7.63;;;2.30;96.10;;;;;;5095185;28;20029;-74
2023/01/20 09:14:22;;;;;;;27.13;9.73;;;2.30;96.00;;;;;;5095132;28;20025;-74
2023/01/20 09:16:48;;;;;;;24.65;8.95;;;2.30;96.10;;;;;;5077408;28;20025;-74
2023/01/20 09:19:13;;;;;;;24.45;8.73;;;2.30;96.50;;;;;;5077246;28;20577;-74
2023/01/20 09:21:39;;;;;;;17.10;7.10;;;2.40;96.20;;;;;;5095058;28;20032;-74
2023/01/20 09:24:05;;;;;;;28.73;10.35;;;2.30;96.10;;;;;;5077266;28;20033;-75
2023/01/20 09:26:37;;;;;;;30.98;10.90;;;2.50;96.00;;;;;;5077272;28;20067;-74
2023/01/20 09:29:09;;;;;;;26.92;10.65;;;2.40;96.10;;;;;;5094992;28;20036;-76
2023/01/20 09:31:58;;;;;;;22.63;8.27;;;2.40;96.10;;;;;;5095037;28;20035;-75
2023/01/20 09:34:26;;;;;;;29.45;10.20;;;2.40;96.10;;;;;;5094739;28;20390;-75
2023/01/20 09:36:57;;;;;;;20.17;7.82;;;2.50;96.20;;;;;;5077052;28;20028;-75
2023/01/20 09:45:58;;;;;;;38.13;14.27;;;2.50;96.20;;;;;;5094694;28;20097;-75
2023/01/20 09:55:00;;;;;;;21.80;8.30;;;2.50;96.10;;;;;;5075006;28;20063;-75
2023/01/20 09:57:32;;;;;;;24.90;10.38;;;2.50;96.00;;;;;;5094346;28;20028;-75
2023/01/20 10:00:06;;;;;;;21.13;8.38;;;2.50;96.20;;;;;;5094311;28;20020;-75
2023/01/20 10:02:35;;;;;;;25.60;8.98;;;2.60;96.00;;;;;;5076532;28;20088;-75
2023/01/20 10:05:13;;;;;;;21.50;7.05;;;2.60;96.10;;;;;;5094087;28;20025;-75
2023/01/20 10:07:41;;;;;;;20.15;7.22;;;2.60;96.00;;;;;;5094042;28;20354;-75
2023/01/20 10:10:25;;;;;;;24.00;9.23;;;2.60;96.10;;;;;;5094036;28;20029;-75
2023/01/20 10:12:56;;;;;;;13.30;5.32;;;2.60;96.00;;;;;;5093966;28;20027;-75
2023/01/20 10:15:28;;;;;;;16.63;6.75;;;2.70;95.90;;;;;;5093989;28;20042;-76
2023/01/20 10:18:05;;;;;;;17.60;5.65;;;2.70;96.00;;;;;;5093924;28;20024;-75
2023/01/20 10:20:42;;;;;;;13.70;5.75;;;2.70;96.00;;;;;;5093807;28;20028;-76
2023/01/20 10:24:02;;;;;;;24.13;7.65;;;2.70;95.70;;;;;;5076232;28;20036;-75
2023/01/20 10:26:55;;;;;;;15.15;7.47;;;2.60;96.00;;;;;;4976531;28;20046;-75
2023/01/20 10:29:31;;;;;;;18.10;7.35;;;2.60;96.10;;;;;;5093745;28;20093;-75
2023/01/20 10:32:05;;;;;;;22.55;8.45;;;2.70;95.90;;;;;;5093206;28;20035;-74
2023/01/20 10:34:43;;;;;;;22.05;8.55;;;2.70;95.70;;;;;;5093505;28;20024;-75
2023/01/20 10:37:10;;;;;;;14.88;5.90;;;2.70;95.90;;;;;;5093576;28;20025;-75
2023/01/20 10:39:41;;;;;;;23.52;8.93;;;2.70;95.80;;;;;;5059437;28;20025;-75
2023/01/20 10:42:13;;;;;;;12.20;5.20;;;2.70;95.90;;;;;;5093752;28;20032;-76
2023/01/20 10:44:39;;;;;;;21.30;7.27;;;2.60;95.80;;;;;;5075785;28;20282;-76
2023/01/20 10:47:26;;;;;;;14.77;5.25;;;2.70;96.40;;;;;;5042810;28;20283;-75
2023/01/20 10:50:17;;;;;;;23.58;10.05;;;2.70;95.60;;;;;;5075750;28;20028;-76
2023/01/20 10:52:53;;;;;;;23.30;9.38;;;2.80;95.70;;;;;;5093414;28;20024;-77
2023/01/20 10:55:25;;;;;;;16.60;6.55;;;2.80;95.80;;;;;;5093510;28;20021;-76
2023/01/20 10:57:57;;;;;;;14.98;6.97;;;2.70;95.50;;;;;;5093271;28;20020;-78
2023/01/20 11:00:30;;;;;;;16.02;6.93;;;2.70;95.50;;;;;;5075714;28;20017;-76
2023/01/20 11:02:58;;;;;;;20.05;7.65;;;2.80;95.60;;;;;;5075680;28;20017;-77
2023/01/20 11:05:28;;;;;;;17.25;7.53;;;2.80;95.40;;;;;;5075606;28;20028;-77
2023/01/20 11:07:55;;;;;;;17.25;5.75;;;2.80;95.40;;;;;;5093246;28;20017;-77
2023/01/20 11:10:25;;;;;;;16.63;7.30;;;2.80;95.40;;;;;;5075393;28;20032;-76
2023/01/20 11:12:55;;;;;;;17.40;7.10;;;2.80;95.50;;;;;;5093279;28;20028;-76
2023/01/20 11:15:34;;;;;;;19.27;8.88;;;2.80;95.50;;;;;;5093164;28;20024;-76
2023/01/20 11:18:15;;;;;;;13.70;5.40;;;2.80;95.40;;;;;;5075475;28;20024;-77
2023/01/20 11:20:57;;;;;;;16.92;7.18;;;2.80;95.50;;;;;;5093102;28;20028;-77
2023/01/20 11:23:22;;;;;;;13.55;5.90;;;2.80;95.70;;;;;;5093132;28;20024;-76
2023/01/20 11:25:57;;;;;;;17.00;6.70;;;2.80;95.70;;;;;;5075074;28;20052;-77
2023/01/20 11:28:24;;;;;;;19.08;8.70;;;2.80;96.00;;;;;;5093117;28;20059;-77
2023/01/20 11:30:52;;;;;;;19.38;6.22;;;2.80;95.70;;;;;;5075254;28;20043;-77
2023/01/20 11:33:27;;;;;;;13.98;6.50;;;2.80;95.50;;;;;;5075127;28;20055;-76
2023/01/20 11:36:22;;;;;;;18.88;7.45;;;2.80;95.70;;;;;;5092962;28;20016;-77
2023/01/20 11:38:50;;;;;;;14.30;7.03;;;2.80;95.50;;;;;;5084847;28;20025;-77
2023/01/20 11:41:24;;;;;;;17.52;7.82;;;2.80;95.60;;;;;;5092922;28;20025;-76
2023/01/20 11:43:54;;;;;;;15.73;6.32;;;2.90;95.60;;;;;;5078059;28;20585;-76
2023/01/20 11:46:23;;;;;;;16.63;7.30;;;2.90;95.60;;;;;;5079856;28;20043;-76
2023/01/20 11:48:49;;;;;;;18.52;7.75;;;2.90;95.60;;;;;;5079040;28;20020;-76
2023/01/20 11:51:26;;;;;;;17.65;6.68;;;2.90;95.70;;;;;;5078972;28;20055;-76
2023/01/20 11:54:07;;;;;;;18.63;7.15;;;2.90;95.50;;;;;;5096577;28;20053;-76
2023/01/20 11:56:43;;;;;;;15.20;6.70;;;3.00;95.50;;;;;;5096658;28;20017;-76
2023/01/20 11:59:35;;;;;;;11.93;5.15;;;3.00;95.50;;;;;;5096627;28;20046;-76
2023/01/20 12:02:22;;;;;;;20.70;8.38;;;2.90;95.50;;;;;;5074582;28;20064;-77
2023/01/20 12:04:51;;;;;;;19.50;7.93;;;2.90;95.60;;;;;;5096395;28;20055;-76
2023/01/20 12:07:21;;;;;;;14.40;6.20;;;3.00;95.60;;;;;;5078702;28;20118;-77
2023/01/20 12:09:53;;;;;;;17.75;7.55;;;2.90;95.60;;;;;;5096317;28;20080;-76
2023/01/20 12:12:36;;;;;;;17.33;7.10;;;3.00;95.70;;;;;;5078697;28;20021;-76
2023/01/20 12:15:21;;;;;;;16.63;6.85;;;3.00;95.30;;;;;;5096317;28;20028;-76
2023/01/20 12:17:54;;;;;;;19.33;9.25;;;3.00;95.20;;;;;;5078556;28;20187;-75
2023/01/20 12:20:34;;;;;;;16.48;7.47;;;3.00;95.40;;;;;;5078483;28;20032;-76
2023/01/20 12:23:09;;;;;;;16.20;7.22;;;3.10;95.60;;;;;;5096195;28;20028;-75
2023/01/20 12:25:55;;;;;;;17.40;7.95;;;3.10;95.50;;;;;;5096148;28;20076;-76
2023/01/20 12:28:39;;;;;;;12.52;5.43;;;3.20;95.40;;;;;;5078328;28;20029;-76
2023/01/20 12:31:09;;;;;;;22.58;9.38;;;3.10;95.20;;;;;;5096018;28;20047;-76
2023/01/20 12:33:49;;;;;;;15.75;6.40;;;3.10;95.10;;;;;;5078373;28;20028;-76
2023/01/20 12:36:18;;;;;;;15.50;7.40;;;3.10;95.10;;;;;;5078322;28;20487;-76
2023/01/20 12:39:15;;;;;;;16.20;7.30;;;3.10;95.10;;;;;;5078066;28;20031;-76
2023/01/20 12:42:05;;;;;;;10.98;5.28;;;3.20;95.30;;;;;;5078157;28;20032;-76
2023/01/20 12:45:06;;;;;;;17.60;7.85;;;3.10;95.10;;;;;;5078032;28;20033;-77
2023/01/20 12:47:57;;;;;;;8.18;3.83;;;3.20;95.10;;;;;;5057298;28;20059;-76
2023/01/20 12:50:35;;;;;;;12.50;5.07;;;3.20;95.20;;;;;;5095858;28;20056;-76
2023/01/20 12:53:27;;;;;;;10.25;4.20;;;3.20;95.10;;;;;;5077653;28;20026;-77
2023/01/20 12:56:19;;;;;;;12.90;5.63;;;3.20;95.30;;;;;;5072882;28;20055;-76
2023/01/20 12:59:00;;;;;;;15.48;5.72;;;3.20;95.60;;;;;;5095599;28;20255;-76
2023/01/20 13:02:07;;;;;;;10.95;4.72;;;3.20;95.40;;;;;;5095511;28;20035;-77
2023/01/20 13:04:57;;;;;;;13.30;5.60;;;3.20;95.10;;;;;;5081881;28;20097;-76
2023/01/20 13:07:25;;;;;;;12.77;5.82;;;3.20;95.20;;;;;;5077745;28;20024;-76
2023/01/20 13:10:15;;;;;;;15.65;7.18;;;3.20;95.30;;;;;;5095253;28;20043;-77
2023/01/20 13:13:07;;;;;;;15.48;6.18;;;3.20;95.30;;;;;;5095471;28;20028;-77
2023/01/20 13:15:45;;;;;;;10.00;5.22;;;3.30;94.90;;;;;;5077572;28;20048;-76